createdAt,value
2022-12-11T00:02:46.126Z,98150.19
2022-12-11T00:05:47.777Z,98150.16
2022-12-11T00:08:54.085Z,98140.66
2022-12-11T00:11:55.733Z,98133.84
2022-12-11T00:14:57.602Z,98133.63
2022-12-11T00:17:59.221Z,98143.25
2022-12-11T00:21:02.410Z,98132.13
2022-12-11T00:24:04.361Z,98127.84
2022-12-11T00:27:05.968Z,98120.88
2022-12-11T00:30:08.042Z,98126.81
2022-12-11T00:33:10.675Z,98125.84
2022-12-11T00:36:31.116Z,98129.28
2022-12-11T00:39:32.726Z,98137.97
2022-12-11T00:42:34.533Z,98125.84
2022-12-11T00:45:37.948Z,98148.06
2022-12-11T00:48:40.043Z,98148.91
2022-12-11T00:51:41.723Z,98167.75
2022-12-11T00:54:43.400Z,98163.41
2022-12-11T00:57:44.996Z,98166.75
2022-12-11T01:00:48.353Z,98172.63
2022-12-11T01:03:50.898Z,98158.84
2022-12-11T01:06:52.561Z,98145.72
2022-12-11T01:10:12.636Z,98136.16
2022-12-11T01:13:14.536Z,98125.84
2022-12-11T01:16:16.439Z,98124.19
2022-12-11T01:19:18.086Z,98140.44
2022-12-11T01:22:19.727Z,98149.06
2022-12-11T01:25:21.777Z,98146.34
2022-12-11T01:28:23.432Z,98143.66
2022-12-11T01:31:28.261Z,98151.31
2022-12-11T01:34:30.976Z,98151.09
2022-12-11T01:37:32.832Z,98150.28
2022-12-11T01:40:34.422Z,98141.66
2022-12-11T01:43:55.929Z,98137.97
2022-12-11T01:46:58.379Z,98137.97
2022-12-11T01:50:00.138Z,98147.56
2022-12-11T01:53:04.218Z,98139.63
2022-12-11T01:56:08.268Z,98146.28
2022-12-11T01:59:11.202Z,98140.16
2022-12-11T02:02:20.976Z,98139.41
2022-12-11T02:05:22.808Z,98137.59
2022-12-11T02:08:24.459Z,98139.22
2022-12-11T02:11:56.926Z,98146.91
2022-12-11T02:15:07.908Z,98150.16
2022-12-11T02:18:28.603Z,98151.03
2022-12-11T02:21:41.875Z,98155.25
2022-12-11T02:24:58.007Z,98155.97
2022-12-11T02:28:20.447Z,98165.34
2022-12-11T02:31:55.990Z,98162.63
2022-12-11T02:35:09.767Z,98157.81
2022-12-11T02:38:27.816Z,98158.63
2022-12-11T02:41:31.533Z,98163.66
2022-12-11T02:44:35.578Z,98162.84
2022-12-11T02:47:39.167Z,98166.22
2022-12-11T02:50:47.474Z,98163.47
2022-12-11T02:53:51.691Z,98165.28
2022-12-11T02:57:04.801Z,98169.69
2022-12-11T03:00:08.657Z,98166.22
2022-12-11T03:03:10.283Z,98155.03
2022-12-11T03:06:18.440Z,98162.78
2022-12-11T03:09:21.018Z,98161.12
2022-12-11T03:12:32.812Z,98151.63
2022-12-11T03:15:46.940Z,98144.59
2022-12-11T03:19:03.879Z,98142.69
2022-12-11T03:22:34.052Z,98146.97
2022-12-11T03:25:47.080Z,98129.69
2022-12-11T03:29:02.794Z,98128.59
2022-12-11T03:32:09.546Z,98128.31
2022-12-11T03:35:44.950Z,98124.69
2022-12-11T03:38:51.025Z,98130.34
2022-12-11T03:41:54.844Z,98125.03
2022-12-11T03:44:59.271Z,98124.81
2022-12-11T03:48:02.786Z,98123.72
2022-12-11T03:51:07.616Z,98124.63
2022-12-11T03:54:11.192Z,98126.91
2022-12-11T03:57:16.653Z,98127.44
2022-12-11T04:00:20.198Z,98129.00
2022-12-11T04:03:21.893Z,98139.25
2022-12-11T04:06:23.509Z,98132.94
2022-12-11T04:09:25.134Z,98141.69
2022-12-11T04:12:26.879Z,98150.03
2022-12-11T04:15:28.527Z,98144.00
2022-12-11T04:18:48.669Z,98148.97
2022-12-11T04:22:09.240Z,98155.81
2022-12-11T04:25:11.200Z,98166.16
2022-12-11T04:28:13.110Z,98169.47
2022-12-11T04:31:21.277Z,98183.75
2022-12-11T04:34:23.271Z,98173.22
2022-12-11T04:37:24.914Z,98176.59
2022-12-11T04:40:26.616Z,98181.00
2022-12-11T04:43:29.003Z,98191.38
2022-12-11T04:46:31.259Z,98209.37
2022-12-11T04:49:32.930Z,98214.50
2022-12-11T04:52:34.562Z,98224.87
2022-12-11T04:55:36.148Z,98228.31
2022-12-11T04:58:38.086Z,98228.34
2022-12-11T05:01:39.730Z,98235.41
2022-12-11T05:04:41.524Z,98249.94
2022-12-11T05:07:43.631Z,98252.34
2022-12-11T05:10:49.998Z,98268.72
2022-12-11T05:13:52.081Z,98265.28
2022-12-11T05:16:53.702Z,98253.38
2022-12-11T05:19:55.395Z,98257.47
2022-12-11T05:22:56.988Z,98261.09
2022-12-11T05:26:01.079Z,98263.34
2022-12-11T05:29:02.720Z,98263.44
2022-12-11T05:32:04.915Z,98277.03
2022-12-11T05:35:06.843Z,98280.59
2022-12-11T05:38:08.432Z,98279.88
2022-12-11T05:41:13.741Z,98281.47
2022-12-11T05:44:15.357Z,98278.84
2022-12-11T05:47:16.984Z,98283.06
2022-12-11T05:50:18.572Z,98288.03
2022-12-11T05:53:20.175Z,98283.81
2022-12-11T05:56:26.432Z,98288.91
2022-12-11T05:59:28.054Z,98290.62
2022-12-11T06:02:29.801Z,98289.81
2022-12-11T06:05:31.436Z,98298.88
2022-12-11T06:08:33.807Z,98299.81
2022-12-11T06:11:36.169Z,98294.69
2022-12-11T06:14:37.789Z,98304.88
2022-12-11T06:17:39.365Z,98313.44
2022-12-11T06:20:41.004Z,98315.22
2022-12-11T06:23:43.584Z,98325.59
2022-12-11T06:26:45.273Z,98325.53
2022-12-11T06:29:46.872Z,98327.28
2022-12-11T06:32:48.532Z,98339.25
2022-12-11T06:35:50.189Z,98347.03
2022-12-11T06:38:52.584Z,98352.19
2022-12-11T06:41:54.367Z,98366.91
2022-12-11T06:44:57.482Z,98373.00
2022-12-11T06:47:59.131Z,98370.53
2022-12-11T06:51:05.706Z,98376.50
2022-12-11T06:54:07.336Z,98390.03
2022-12-11T06:57:09.835Z,98398.88
2022-12-11T07:00:11.999Z,98409.19
2022-12-11T07:03:13.834Z,98417.84
2022-12-11T07:06:15.879Z,98425.34
2022-12-11T07:09:17.498Z,98438.94
2022-12-11T07:12:19.136Z,98445.25
2022-12-11T07:15:20.880Z,98444.38
2022-12-11T07:18:22.491Z,98451.19
2022-12-11T07:21:24.598Z,98462.56
2022-12-11T07:24:26.330Z,98463.56
2022-12-11T07:27:28.496Z,98461.78
2022-12-11T07:30:30.681Z,98461.84
2022-12-11T07:33:32.373Z,98472.25
2022-12-11T07:36:35.193Z,98467.69
2022-12-11T07:39:36.944Z,98471.38
2022-12-11T07:42:42.911Z,98489.34
2022-12-11T07:45:47.831Z,98498.16
2022-12-11T07:48:49.750Z,98504.06
2022-12-11T07:51:51.370Z,98499.72
2022-12-11T07:54:53.028Z,98514.47
2022-12-11T07:57:54.633Z,98513.59
2022-12-11T08:00:56.345Z,98522.37
2022-12-11T08:03:58.477Z,98523.16
2022-12-11T08:07:00.132Z,98520.78
2022-12-11T08:10:02.419Z,98518.00
2022-12-11T08:13:04.043Z,98520.75
2022-12-11T08:16:07.782Z,98534.53
2022-12-11T08:19:10.794Z,98548.53
2022-12-11T08:22:13.335Z,98545.37
2022-12-11T08:25:14.959Z,98563.41
2022-12-11T08:28:16.610Z,98567.84
2022-12-11T08:31:18.759Z,98578.03
2022-12-11T08:34:20.410Z,98585.75
2022-12-11T08:37:22.026Z,98602.16
2022-12-11T08:40:23.855Z,98610.78
2022-12-11T08:43:25.910Z,98614.13
2022-12-11T08:46:30.524Z,98609.97
2022-12-11T08:49:34.637Z,98620.87
2022-12-11T08:52:36.456Z,98627.81
2022-12-11T08:55:38.109Z,98637.78
2022-12-11T08:58:39.854Z,98632.72
2022-12-11T09:01:42.013Z,98635.00
2022-12-11T09:04:43.659Z,98632.62
2022-12-11T09:07:45.688Z,98636.09
2022-12-11T09:10:47.389Z,98640.81
2022-12-11T09:13:49.454Z,98642.53
2022-12-11T09:16:51.066Z,98649.03
2022-12-11T09:19:52.701Z,98655.75
2022-12-11T09:22:54.319Z,98653.28
2022-12-11T09:25:56.081Z,98648.84
2022-12-11T09:28:58.584Z,98646.28
2022-12-11T09:32:00.247Z,98651.69
2022-12-11T09:35:01.904Z,98656.84
2022-12-11T09:38:03.628Z,98661.88
2022-12-11T09:41:35.123Z,98658.81
2022-12-11T09:44:51.533Z,98661.44
2022-12-11T09:47:56.649Z,98663.09
2022-12-11T09:50:58.357Z,98671.12
2022-12-11T09:54:02.314Z,98667.00
2022-12-11T09:57:19.069Z,98659.19
2022-12-11T10:00:27.584Z,98673.13
2022-12-11T10:03:44.580Z,98660.03
2022-12-11T10:06:54.437Z,98656.62
2022-12-11T10:10:01.212Z,98651.56
2022-12-11T10:13:14.930Z,98663.03
2022-12-11T10:16:38.464Z,98655.53
2022-12-11T10:19:41.501Z,98659.91
2022-12-11T10:22:44.382Z,98665.41
2022-12-11T10:26:15.264Z,98658.13
2022-12-11T10:29:17.221Z,98659.56
2022-12-11T10:32:26.593Z,98669.03
2022-12-11T10:35:39.883Z,98672.34
2022-12-11T10:38:45.572Z,98663.78
2022-12-11T10:41:49.955Z,98680.34
2022-12-11T10:45:00.976Z,98688.41
2022-12-11T10:48:09.615Z,98693.13
2022-12-11T10:51:11.813Z,98708.47
2022-12-11T10:54:38.274Z,98697.19
2022-12-11T10:57:40.045Z,98687.72
2022-12-11T11:00:42.454Z,98698.09
2022-12-11T11:03:55.058Z,98696.53
2022-12-11T11:07:15.220Z,98701.12
2022-12-11T11:10:18.128Z,98687.53
2022-12-11T11:13:22.552Z,98690.44
2022-12-11T11:16:25.403Z,98695.59
2022-12-11T11:19:31.108Z,98697.81
2022-12-11T11:22:32.933Z,98702.09
2022-12-11T11:25:34.905Z,98713.56
2022-12-11T11:28:40.778Z,98720.41
2022-12-11T11:31:42.540Z,98726.16
2022-12-11T11:34:44.179Z,98726.16
2022-12-11T11:38:07.285Z,98724.56
2022-12-11T11:41:34.311Z,98718.31
2022-12-11T11:44:47.671Z,98731.25
2022-12-11T11:48:11.311Z,98733.88
2022-12-11T11:51:15.865Z,98740.62
2022-12-11T11:54:34.946Z,98748.59
2022-12-11T11:57:55.227Z,98743.03
2022-12-11T12:00:56.817Z,98734.44
2022-12-11T12:03:59.070Z,98727.94
2022-12-11T12:07:22.232Z,98711.06
2022-12-11T12:10:31.960Z,98709.03
2022-12-11T12:14:43.723Z,98727.31
2022-12-11T12:17:42.900Z,98734.00
2022-12-11T12:21:04.493Z,98741.03
2022-12-11T12:24:25.381Z,98749.03
2022-12-11T12:27:53.041Z,98746.34
2022-12-11T12:31:29.498Z,98748.72
2022-12-11T12:34:43.567Z,98747.97
2022-12-11T12:37:58.695Z,98747.88
2022-12-11T12:41:14.064Z,98757.25
2022-12-11T12:44:18.850Z,98765.03
2022-12-11T12:47:21.920Z,98769.34
2022-12-11T12:50:27.224Z,98777.81
2022-12-11T12:53:33.604Z,98778.66
2022-12-11T12:56:37.477Z,98777.72
2022-12-11T12:59:39.078Z,98774.34
2022-12-11T13:02:51.723Z,98783.56
2022-12-11T13:06:03.304Z,98785.34
2022-12-11T13:09:23.918Z,98785.59
2022-12-11T13:12:41.849Z,98791.88
2022-12-11T13:15:43.971Z,98804.66
2022-12-11T13:18:49.225Z,98799.84
2022-12-11T13:21:56.695Z,98810.16
2022-12-11T13:25:01.942Z,98811.03
2022-12-11T13:28:26.157Z,98821.56
2022-12-11T13:31:37.344Z,98827.91
2022-12-11T13:34:45.325Z,98839.75
2022-12-11T13:37:49.970Z,98841.56
2022-12-11T13:40:55.759Z,98843.78
2022-12-11T13:43:58.140Z,98838.28
2022-12-11T13:47:03.789Z,98836.44
2022-12-11T13:50:20.978Z,98846.66
2022-12-11T13:53:23.972Z,98842.41
2022-12-11T13:56:25.866Z,98848.31
2022-12-11T13:59:34.300Z,98850.22
2022-12-11T14:02:42.649Z,98853.09
2022-12-11T14:05:44.642Z,98854.56
2022-12-11T14:08:50.206Z,98860.47
2022-12-11T14:11:56.754Z,98865.50
2022-12-11T14:15:02.381Z,98863.50
2022-12-11T14:18:05.601Z,98867.25
2022-12-11T14:21:07.521Z,98860.84
2022-12-11T14:24:14.315Z,98853.00
2022-12-11T14:27:18.776Z,98843.09
2022-12-11T14:30:26.247Z,98860.16
2022-12-11T14:33:41.102Z,98878.88
2022-12-11T14:36:46.790Z,98877.25
2022-12-11T14:40:16.071Z,98878.63
2022-12-11T14:43:30.682Z,98889.31
2022-12-11T14:46:45.681Z,98897.72
2022-12-11T14:49:47.227Z,98905.75
2022-12-11T14:53:02.874Z,98907.62
2022-12-11T14:56:16.347Z,98908.72
2022-12-11T14:59:26.900Z,98915.41
2022-12-11T15:02:33.724Z,98910.25
2022-12-11T15:05:40.581Z,98915.66
2022-12-11T15:08:42.737Z,98916.63
2022-12-11T15:11:45.335Z,98918.94
2022-12-11T15:15:00.939Z,98926.72
2022-12-11T15:18:07.862Z,98940.25
2022-12-11T15:21:12.266Z,98943.06
2022-12-11T15:24:28.419Z,98942.94
2022-12-11T15:27:40.181Z,98952.22
2022-12-11T15:30:42.064Z,98952.47
2022-12-11T15:33:50.285Z,98957.37
2022-12-11T15:36:51.999Z,98961.06
2022-12-11T15:39:55.239Z,98964.06
2022-12-11T15:42:58.351Z,98966.69
2022-12-11T15:46:02.670Z,98965.19
2022-12-11T15:49:12.720Z,98972.16
2022-12-11T15:52:14.466Z,98967.13
2022-12-11T15:55:16.641Z,98969.09
2022-12-11T15:58:24.455Z,98966.81
2022-12-11T16:01:26.541Z,98964.56
2022-12-11T16:04:28.804Z,98965.37
2022-12-11T16:07:30.621Z,98971.28
2022-12-11T16:10:32.690Z,98974.50
2022-12-11T16:13:34.759Z,98974.81
2022-12-11T16:16:36.456Z,98979.37
2022-12-11T16:19:38.476Z,98986.84
2022-12-11T16:22:40.411Z,98984.34
2022-12-11T16:25:45.834Z,98983.38
2022-12-11T16:28:48.184Z,98993.19
2022-12-11T16:31:50.461Z,98989.25
2022-12-11T16:34:52.690Z,98989.41
2022-12-11T16:37:55.319Z,98988.97
2022-12-11T16:41:01.382Z,98991.25
2022-12-11T16:44:03.776Z,98992.25
2022-12-11T16:47:05.548Z,98987.91
2022-12-11T16:50:08.175Z,98984.66
2022-12-11T16:53:10.236Z,98995.13
2022-12-11T16:56:11.987Z,98993.88
2022-12-11T16:59:15.240Z,98990.28
2022-12-11T17:02:18.029Z,98984.25
2022-12-11T17:05:20.797Z,98990.91
2022-12-11T17:08:22.860Z,98994.37
2022-12-11T17:11:29.492Z,98996.19
2022-12-11T17:14:34.150Z,98999.66
2022-12-11T17:17:36.224Z,99002.47
2022-12-11T17:20:42.168Z,99004.34
2022-12-11T17:23:45.162Z,99003.78
2022-12-11T17:26:48.569Z,98997.63
2022-12-11T17:29:50.878Z,98996.69
2022-12-11T17:32:52.841Z,99002.53
2022-12-11T17:35:55.073Z,99003.41
2022-12-11T17:38:57.501Z,98995.94
2022-12-11T17:41:59.807Z,98996.91
2022-12-11T17:45:04.077Z,98999.66
2022-12-11T17:48:06.285Z,98999.53
2022-12-11T17:51:11.757Z,99002.22
2022-12-11T17:54:14.325Z,98997.28
2022-12-11T17:57:16.077Z,99004.53
2022-12-11T18:00:18.272Z,99003.66
2022-12-11T18:03:20.983Z,99009.63
2022-12-11T18:06:24.558Z,99007.53
2022-12-11T18:09:26.213Z,99017.56
2022-12-11T18:12:28.201Z,99021.22
2022-12-11T18:15:31.461Z,99031.06
2022-12-11T18:18:35.582Z,99030.53
2022-12-11T18:21:41.791Z,99036.66
2022-12-11T18:24:44.073Z,99037.91
2022-12-11T18:27:47.070Z,99041.34
2022-12-11T18:30:49.397Z,99044.81
2022-12-11T18:33:52.092Z,99052.66
2022-12-11T18:36:54.547Z,99052.88
2022-12-11T18:39:56.764Z,99050.66
2022-12-11T18:42:58.904Z,99057.44
2022-12-11T18:46:02.214Z,99064.44
2022-12-11T18:49:04.638Z,99059.75
2022-12-11T18:52:07.339Z,99050.84
2022-12-11T18:55:10.212Z,99058.47
2022-12-11T18:58:14.666Z,99061.63
2022-12-11T19:01:24.188Z,99061.63
2022-12-11T19:04:26.230Z,99074.13
2022-12-11T19:07:28.750Z,99069.22
2022-12-11T19:10:31.256Z,99074.19
2022-12-11T19:13:34.849Z,99079.50
2022-12-11T19:16:41.368Z,99083.00
2022-12-11T19:19:46.685Z,99086.84
2022-12-11T19:22:49.094Z,99087.72
2022-12-11T19:25:51.628Z,99087.72
2022-12-11T19:28:54.378Z,99090.94
2022-12-11T19:31:57.337Z,99102.31
2022-12-11T19:35:00.696Z,99099.69
2022-12-11T19:38:02.881Z,99105.75
2022-12-11T19:41:14.343Z,99099.06
2022-12-11T19:44:17.532Z,99108.28
2022-12-11T19:47:20.695Z,99108.13
2022-12-11T19:50:23.197Z,99115.69
2022-12-11T19:53:25.526Z,99113.53
2022-12-11T19:56:28.301Z,99111.50
2022-12-11T19:59:30.984Z,99119.78
2022-12-11T20:02:33.206Z,99118.97
2022-12-11T20:05:36.069Z,99122.78
2022-12-11T20:08:46.297Z,99116.13
2022-12-11T20:11:49.667Z,99119.34
2022-12-11T20:14:53.440Z,99114.44
2022-12-11T20:17:58.169Z,99119.44
2022-12-11T20:21:01.320Z,99121.84
2022-12-11T20:24:03.882Z,99124.19
2022-12-11T20:27:08.225Z,99121.69
2022-12-11T20:30:10.976Z,99129.31
2022-12-11T20:33:13.249Z,99129.19
2022-12-11T20:36:17.485Z,99131.66
2022-12-11T20:39:20.216Z,99128.00
2022-12-11T20:42:23.369Z,99134.06
2022-12-11T20:45:25.852Z,99130.47
2022-12-11T20:48:28.269Z,99132.81
2022-12-11T20:51:32.863Z,99132.31
2022-12-11T20:54:35.209Z,99129.50
2022-12-11T20:57:41.992Z,99133.09
2022-12-11T21:00:48.251Z,99134.88
2022-12-11T21:03:50.542Z,99134.53
2022-12-11T21:07:02.428Z,99132.94
2022-12-11T21:10:05.820Z,99137.09
2022-12-11T21:13:07.794Z,99138.97
2022-12-11T21:16:10.671Z,99134.03
2022-12-11T21:19:17.053Z,99135.22
2022-12-11T21:22:19.380Z,99141.94
2022-12-11T21:25:21.115Z,99146.53
2022-12-11T21:28:24.330Z,99144.25
2022-12-11T21:31:27.653Z,99144.66
2022-12-11T21:34:29.842Z,99149.16
2022-12-11T21:37:31.943Z,99148.13
2022-12-11T21:40:34.179Z,99153.41
2022-12-11T21:43:35.792Z,99160.44
2022-12-11T21:46:37.903Z,99173.44
2022-12-11T21:49:39.575Z,99174.50
2022-12-11T21:52:41.208Z,99174.69
2022-12-11T21:55:42.873Z,99172.75
2022-12-11T21:58:45.253Z,99176.53
2022-12-11T22:01:47.126Z,99166.66
2022-12-11T22:04:48.788Z,99175.03
2022-12-11T22:07:50.481Z,99181.84
2022-12-11T22:10:52.209Z,99188.62
2022-12-11T22:13:54.460Z,99192.53
2022-12-11T22:16:56.128Z,99185.63
2022-12-11T22:19:57.785Z,99193.16
2022-12-11T22:22:59.522Z,99190.81
2022-12-11T22:26:01.317Z,99198.16
2022-12-11T22:29:03.615Z,99194.16
2022-12-11T22:32:05.362Z,99192.37
2022-12-11T22:35:07.391Z,99183.66
2022-12-11T22:38:09.083Z,99189.50
2022-12-11T22:41:16.349Z,99186.16
2022-12-11T22:44:22.209Z,99195.34
2022-12-11T22:47:23.947Z,99199.25
2022-12-11T22:50:25.550Z,99191.56
2022-12-11T22:53:27.170Z,99201.37
2022-12-11T22:56:28.827Z,99205.16
2022-12-11T22:59:30.432Z,99206.06
2022-12-11T23:02:32.075Z,99210.66
2022-12-11T23:05:33.720Z,99211.72
2022-12-11T23:08:35.759Z,99208.66
2022-12-11T23:11:38.460Z,99208.66
2022-12-11T23:14:40.124Z,99205.81
2022-12-11T23:17:41.768Z,99214.22
2022-12-11T23:20:43.723Z,99227.62
2022-12-11T23:23:45.574Z,99220.28
2022-12-11T23:26:48.180Z,99227.88
2022-12-11T23:29:49.890Z,99217.28
2022-12-11T23:32:51.497Z,99231.41
2022-12-11T23:35:53.131Z,99234.31
2022-12-11T23:38:55.292Z,99233.25
2022-12-11T23:41:57.122Z,99232.47
2022-12-11T23:44:58.787Z,99229.28
2022-12-11T23:48:00.461Z,99224.16
2022-12-11T23:51:04.364Z,99214.03
2022-12-11T23:54:05.997Z,99216.06
2022-12-11T23:57:07.601Z,99219.16
